KSUE

Details ICAO KSUE
Name DOOR CO CHERRYLAND
Region United States
Timezone America/Chicago (UTC-6.0)
Plans Departing 1
Arriving 3
Stats Elevation 724 ft / 221 m (AMSL)
Location 44.843789° -87.421270°
Runways 2
Magnetic Variation 4.627° W
Sunrise 2017-12-17 13:23:28 UTC / 2017-12-17 07:23:28 Local
Sunset 2017-12-17 22:11:07 UTC / 2017-12-17 16:11:07 Local
Advertisement - Login to hide

Runways

ID Width Length Bearing (true) Bearing (mag) Surface Threshold Offset Overrun Length
02 75 ft / 23 m 4,603 ft / 1,403 m 12.87° 17.50° Asphalt 0 ft / 0 m 0 ft / 0 m
10 75 ft / 23 m 3,191 ft / 973 m 93.08° 97.71° Asphalt 0 ft / 0 m 0 ft / 0 m
20 75 ft / 23 m 4,603 ft / 1,403 m 192.88° 197.51° Asphalt 0 ft / 0 m 0 ft / 0 m
28 75 ft / 23 m 3,191 ft / 973 m 273.08° 277.71° Asphalt 0 ft / 0 m 350 ft / 107 m

Map

Weather


0- 5 10 15 20 25 30 35+ Temperature / ° C

Clouds and Precipitation
Forecast for 2017-12-17 18:00 UTC. Updated 40 minutes ago

Ground ~20,000 ft ~40,000 ft Winds

METAR

KSUE 171256Z AUTO 10005KT 10SM OVC014 M02/M04 A3018 RMK AO2 SLP244 T10221044 FZRANO

TAF

Not found

Frequencies

Recorded 128.32 MHz AWOS 3
Approach 119.25 MHz GREEN BAY APP/DEP
Unicom 122.70 MHz CTAF/UNICOM
Warning: Do not use this data for real-world aviation or navigation. No guarantee of current accuracy is given.